Time,TemperatureF,DewpointF,PressureIn,WindDirection,WindDirectionDegrees,WindSpeedMPH,WindSpeedGustMPH,Humidity,HourlyPrecipIn,Conditions,Clouds,dailyrainin,SoftwareType,DateUTC
2013-01-08 00:29:00,32.3,27.0,30.33,NE,42,0.0,2.0,81,0.00,,,0.00,weatherlink.com 1.10,2013-01-08 05:29:00,
2013-01-08 00:44:00,33.3,28.0,30.32,NE,42,3.0,5.0,81,0.00,,,0.00,weatherlink.com 1.10,2013-01-08 05:44:00,
2013-01-08 00:59:00,31.8,27.0,30.32,NE,42,3.0,4.0,82,0.00,,,0.00,weatherlink.com 1.10,2013-01-08 05:59:00,
2013-01-08 01:14:00,30.8,27.0,30.32,NE,42,0.0,1.0,84,0.00,,,0.00,weatherlink.com 1.10,2013-01-08 06:14:00,
2013-01-08 01:29:00,30.3,27.0,30.31,NE,42,0.0,1.0,86,0.00,,,0.00,weatherlink.com 1.10,2013-01-08 06:29:00,
2013-01-08 01:44:00,30.3,27.0,30.31,NE,42,2.0,4.0,88,0.00,,,0.00,weatherlink.com 1.10,2013-01-08 06:44:00,
2013-01-08 01:59:00,29.6,26.0,30.32,NE,42,0.0,0.0,86,0.00,,,0.00,weatherlink.com 1.10,2013-01-08 06:59:00,
2013-01-08 02:14:00,29.0,26.0,30.32,NE,42,0.0,2.0,88,0.00,,,0.00,weatherlink.com 1.10,2013-01-08 07:14:00,
2013-01-08 02:29:00,29.3,27.0,30.32,NE,42,2.0,3.0,90,0.00,,,0.00,weatherlink.com 1.10,2013-01-08 07:29:00,
2013-01-08 02:44:00,29.2,26.0,30.31,NE,42,0.0,1.0,89,0.00,,,0.00,weatherlink.com 1.10,2013-01-08 07:44:00,
2013-01-08 02:59:00,28.6,26.0,30.31,NE,42,0.0,2.0,90,0.00,,,0.00,weatherlink.com 1.10,2013-01-08 07:59:00,
2013-01-08 03:14:00,28.3,26.0,30.31,NE,42,1.0,1.0,90,0.00,,,0.00,weatherlink.com 1.10,2013-01-08 08:14:00,
2013-01-08 03:29:00,28.2,26.0,30.31,NE,42,1.0,2.0,91,0.00,,,0.00,weatherlink.com 1.10,2013-01-08 08:29:00,
2013-01-08 03:44:00,28.8,26.0,30.31,NE,42,1.0,3.0,90,0.00,,,0.00,weatherlink.com 1.10,2013-01-08 08:44:00,
2013-01-08 03:59:00,28.2,26.0,30.31,NE,42,0.0,1.0,91,0.00,,,0.00,weatherlink.com 1.10,2013-01-08 08:59:00,
2013-01-08 04:14:00,27.8,26.0,30.31,NE,42,0.0,4.0,91,0.00,,,0.00,weatherlink.com 1.10,2013-01-08 09:14:00,
2013-01-08 04:30:00,27.4,25.0,30.31,NE,42,0.0,2.0,92,0.00,,,0.00,weatherlink.com 1.10,2013-01-08 09:30:00,
2013-01-08 04:45:00,27.1,25.0,30.30,NE,42,0.0,1.0,92,0.00,,,0.00,weatherlink.com 1.10,2013-01-08 09:45:00,
2013-01-08 05:00:00,27.4,26.0,30.31,NE,42,0.0,3.0,93,0.00,,,0.00,weatherlink.com 1.10,2013-01-08 10:00:00,
2013-01-08 05:15:00,27.5,26.0,30.32,NE,42,0.0,4.0,92,0.00,,,0.00,weatherlink.com 1.10,2013-01-08 10:15:00,
2013-01-08 05:30:00,27.4,26.0,30.32,NE,42,0.0,1.0,93,0.00,,,0.00,weatherlink.com 1.10,2013-01-08 10:30:00,
2013-01-08 05:45:00,28.8,27.0,30.32,NNE,33,3.0,5.0,94,0.00,,,0.00,weatherlink.com 1.10,2013-01-08 10:45:00,
2013-01-08 06:00:00,28.6,26.0,30.33,NW,315,0.0,2.0,90,0.00,,,0.00,weatherlink.com 1.10,2013-01-08 11:00:00,
2013-01-08 06:15:00,28.2,26.0,30.33,NNE,15,0.0,3.0,92,0.00,,,0.00,weatherlink.com 1.10,2013-01-08 11:15:00,
2013-01-08 06:30:00,30.0,28.0,30.33,NE,42,4.0,5.0,92,0.00,,,0.00,weatherlink.com 1.10,2013-01-08 11:30:00,
2013-01-08 06:45:00,31.5,29.0,30.33,NE,51,3.0,4.0,90,0.00,,,0.00,weatherlink.com 1.10,2013-01-08 11:45:00,
2013-01-08 07:00:00,32.0,29.0,30.33,NE,48,3.0,5.0,88,0.00,,,0.00,weatherlink.com 1.10,2013-01-08 12:00:00,
2013-01-08 07:15:00,31.9,29.0,30.34,NE,42,3.0,6.0,88,0.00,,,0.00,weatherlink.com 1.10,2013-01-08 12:15:00,
2013-01-08 07:30:00,31.7,28.0,30.34,NE,46,0.0,3.0,87,0.00,,,0.00,weatherlink.com 1.10,2013-01-08 12:30:00,
2013-01-08 07:45:00,30.3,27.0,30.34,NE,46,0.0,2.0,88,0.00,,,0.00,weatherlink.com 1.10,2013-01-08 12:45:00,
2013-01-08 08:00:00,30.3,28.0,30.34,NE,41,1.0,4.0,90,0.00,,,0.00,weatherlink.com 1.10,2013-01-08 13:00:00,
2013-01-08 08:16:00,30.3,28.0,30.34,NE,41,2.0,3.0,91,0.00,,,0.00,weatherlink.com 1.10,2013-01-08 13:16:00,
2013-01-08 08:30:00,31.6,29.0,30.35,NE,41,0.0,2.0,91,0.00,,,0.00,weatherlink.com 1.10,2013-01-08 13:30:00,
2013-01-08 08:45:00,32.5,30.0,30.36,NE,41,0.0,1.0,90,0.00,,,0.00,weatherlink.com 1.10,2013-01-08 13:45:00,
2013-01-08 09:00:00,33.2,31.0,30.36,NE,41,0.0,2.0,91,0.00,,,0.00,weatherlink.com 1.10,2013-01-08 14:00:00,
2013-01-08 09:15:00,35.3,32.0,30.36,NE,40,3.0,3.0,88,0.00,,,0.00,weatherlink.com 1.10,2013-01-08 14:15:00,
2013-01-08 09:30:00,37.4,34.0,30.37,NE,40,0.0,2.0,88,0.00,,,0.00,weatherlink.com 1.10,2013-01-08 14:30:00,
2013-01-08 09:45:00,39.1,36.0,30.38,NE,40,0.0,1.0,87,0.00,,,0.00,weatherlink.com 1.10,2013-01-08 14:45:00,
2013-01-08 10:15:00,41.8,35.0,30.38,ENE,57,0.0,2.0,77,0.00,,,0.00,weatherlink.com 1.10,2013-01-08 15:15:00,
2013-01-08 10:30:00,43.2,35.0,30.39,ENE,57,1.0,2.0,74,0.00,,,0.00,weatherlink.com 1.10,2013-01-08 15:30:00,
2013-01-08 10:45:00,44.5,36.0,30.38,North,11,0.0,2.0,71,0.00,,,0.00,weatherlink.com 1.10,2013-01-08 15:45:00,
2013-01-08 11:00:00,45.9,36.0,30.38,ENE,73,2.0,3.0,68,0.00,,,0.00,weatherlink.com 1.10,2013-01-08 16:00:00,
2013-01-08 11:15:00,46.4,36.0,30.36,SW,215,0.0,4.0,66,0.00,,,0.00,weatherlink.com 1.10,2013-01-08 16:15:00,
2013-01-08 11:30:00,47.0,35.0,30.36,South,169,2.0,4.0,64,0.00,,,0.00,weatherlink.com 1.10,2013-01-08 16:30:00,
2013-01-08 11:45:00,46.7,35.0,30.36,SSW,211,1.0,4.0,64,0.00,,,0.00,weatherlink.com 1.10,2013-01-08 16:45:00,
2013-01-08 12:00:00,46.7,36.0,30.35,South,188,2.0,4.0,66,0.00,,,0.00,weatherlink.com 1.10,2013-01-08 17:00:00,
2013-01-08 12:15:00,47.0,36.0,30.35,SSW,203,2.0,6.0,65,0.00,,,0.00,weatherlink.com 1.10,2013-01-08 17:15:00,
2013-01-08 12:30:00,46.4,35.0,30.34,South,188,2.0,4.0,65,0.00,,,0.00,weatherlink.com 1.10,2013-01-08 17:30:00,
2013-01-08 12:45:00,46.8,35.0,30.33,SSW,201,0.0,5.0,65,0.00,,,0.00,weatherlink.com 1.10,2013-01-08 17:45:00,
2013-01-08 13:00:00,47.6,36.0,30.33,SW,226,3.0,5.0,64,0.00,,,0.00,weatherlink.com 1.10,2013-01-08 18:00:00,
2013-01-08 13:15:00,47.9,36.0,30.33,SW,227,1.0,5.0,63,0.00,,,0.00,weatherlink.com 1.10,2013-01-08 18:15:00,
2013-01-08 13:30:00,48.0,36.0,30.32,SW,228,1.0,3.0,63,0.00,,,0.00,weatherlink.com 1.10,2013-01-08 18:30:00,
2013-01-08 13:45:00,49.8,37.0,30.31,SSW,206,3.0,4.0,62,0.00,,,0.00,weatherlink.com 1.10,2013-01-08 18:45:00,
2013-01-08 14:00:00,50.3,37.0,30.30,SSW,197,1.0,4.0,61,0.00,,,0.00,weatherlink.com 1.10,2013-01-08 19:00:00,
2013-01-08 14:15:00,50.4,38.0,30.30,East,82,0.0,5.0,62,0.00,,,0.00,weatherlink.com 1.10,2013-01-08 19:15:00,
2013-01-08 14:30:00,50.8,38.0,30.30,SSW,213,2.0,4.0,62,0.00,,,0.00,weatherlink.com 1.10,2013-01-08 19:30:00,
2013-01-08 14:45:00,50.5,38.0,30.29,South,176,0.0,4.0,63,0.00,,,0.00,weatherlink.com 1.10,2013-01-08 19:45:00,
2013-01-08 15:00:00,50.9,39.0,30.29,SW,221,4.0,4.0,63,0.00,,,0.00,weatherlink.com 1.10,2013-01-08 20:00:00,
2013-01-08 15:15:00,50.6,39.0,30.29,West,270,2.0,3.0,64,0.00,,,0.00,weatherlink.com 1.10,2013-01-08 20:15:00,
2013-01-08 15:30:00,50.5,39.0,30.30,WSW,246,1.0,4.0,66,0.00,,,0.00,weatherlink.com 1.10,2013-01-08 20:30:00,
2013-01-08 15:45:00,50.5,39.0,30.29,West,275,0.0,4.0,66,0.00,,,0.00,weatherlink.com 1.10,2013-01-08 20:45:00,
2013-01-08 16:00:00,50.6,40.0,30.30,SSW,199,1.0,3.0,67,0.00,,,0.00,weatherlink.com 1.10,2013-01-08 21:00:00,
2013-01-08 16:15:00,50.6,40.0,30.30,SSW,199,1.0,2.0,67,0.00,,,0.00,weatherlink.com 1.10,2013-01-08 21:15:00,
2013-01-08 16:30:00,50.5,40.0,30.30,SSW,199,1.0,3.0,67,0.00,,,0.00,weatherlink.com 1.10,2013-01-08 21:30:00,
2013-01-08 16:45:00,50.4,40.0,30.29,SSW,199,0.0,1.0,68,0.00,,,0.00,weatherlink.com 1.10,2013-01-08 21:45:00,
2013-01-08 17:00:00,50.4,40.0,30.29,SSW,199,0.0,2.0,68,0.00,,,0.00,weatherlink.com 1.10,2013-01-08 22:00:00,
2013-01-08 17:15:00,50.3,41.0,30.29,SSW,199,0.0,1.0,70,0.00,,,0.00,weatherlink.com 1.10,2013-01-08 22:15:00,
2013-01-08 17:30:00,49.9,41.0,30.30,SSW,199,0.0,1.0,72,0.00,,,0.00,weatherlink.com 1.10,2013-01-08 22:30:00,
2013-01-08 17:45:00,49.4,41.0,30.29,SSW,199,1.0,2.0,72,0.00,,,0.00,weatherlink.com 1.10,2013-01-08 22:45:00,
2013-01-08 18:00:00,48.4,41.0,30.30,SSW,199,0.0,2.0,76,0.00,,,0.00,weatherlink.com 1.10,2013-01-08 23:00:00,
2013-01-08 18:15:00,47.8,41.0,30.30,SSW,199,1.0,1.0,76,0.00,,,0.00,weatherlink.com 1.10,2013-01-08 23:15:00,
2013-01-08 18:30:00,46.7,40.0,30.30,NE,36,0.0,4.0,77,0.00,,,0.00,weatherlink.com 1.10,2013-01-08 23:30:00,
2013-01-08 18:45:00,45.8,40.0,30.30,NE,36,0.0,2.0,81,0.00,,,0.00,weatherlink.com 1.10,2013-01-08 23:45:00,
2013-01-08 19:00:00,44.5,39.0,30.31,NE,36,0.0,0.0,82,0.00,,,0.00,weatherlink.com 1.10,2013-01-09 00:00:00,
2013-01-08 19:15:00,42.8,38.0,30.30,NE,36,0.0,1.0,84,0.00,,,0.00,weatherlink.com 1.10,2013-01-09 00:15:00,
2013-01-08 19:30:00,42.3,39.0,30.31,NE,36,0.0,3.0,87,0.00,,,0.00,weatherlink.com 1.10,2013-01-09 00:30:00,
2013-01-08 19:45:00,41.8,39.0,30.32,NE,36,1.0,2.0,89,0.00,,,0.00,weatherlink.com 1.10,2013-01-09 00:45:00,
2013-01-08 20:00:00,42.1,39.0,30.32,NE,36,2.0,3.0,90,0.00,,,0.00,weatherlink.com 1.10,2013-01-09 01:00:00,
2013-01-08 20:15:00,42.3,39.0,30.33,NE,36,1.0,2.0,89,0.00,,,0.00,weatherlink.com 1.10,2013-01-09 01:15:00,
2013-01-08 20:30:00,42.9,39.0,30.33,NE,50,0.0,4.0,87,0.00,,,0.00,weatherlink.com 1.10,2013-01-09 01:30:00,
2013-01-08 20:45:00,41.8,39.0,30.32,NE,50,1.0,2.0,88,0.00,,,0.00,weatherlink.com 1.10,2013-01-09 01:45:00,
2013-01-08 21:15:00,41.5,39.0,30.32,NE,50,0.0,1.0,91,0.00,,,0.00,weatherlink.com 1.10,2013-01-09 02:15:00,
2013-01-08 21:30:00,41.5,39.0,30.31,NE,50,3.0,4.0,90,0.00,,,0.00,weatherlink.com 1.10,2013-01-09 02:30:00,
2013-01-08 21:45:00,42.7,40.0,30.32,NNE,19,0.0,3.0,89,0.00,,,0.00,weatherlink.com 1.10,2013-01-09 02:45:00,
2013-01-08 22:00:00,42.7,40.0,30.33,NNE,19,0.0,1.0,90,0.00,,,0.00,weatherlink.com 1.10,2013-01-09 03:00:00,
2013-01-08 22:15:00,43.7,41.0,30.34,SSE,151,5.0,5.0,90,0.00,,,0.00,weatherlink.com 1.10,2013-01-09 03:15:00,
2013-01-08 22:30:00,44.2,41.0,30.34,South,184,0.0,4.0,87,0.00,,,0.00,weatherlink.com 1.10,2013-01-09 03:30:00,
2013-01-08 22:46:00,44.1,41.0,30.34,SE,140,1.0,2.0,87,0.00,,,0.00,weatherlink.com 1.10,2013-01-09 03:46:00,
2013-01-08 23:01:00,44.3,41.0,30.33,NE,51,2.0,3.0,87,0.00,,,0.00,weatherlink.com 1.10,2013-01-09 04:01:00,
2013-01-08 23:16:00,44.7,41.0,30.34,North,5,0.0,2.0,87,0.00,,,0.00,weatherlink.com 1.10,2013-01-09 04:16:00,
2013-01-08 23:31:00,45.1,42.0,30.34,North,5,1.0,1.0,87,0.00,,,0.00,weatherlink.com 1.10,2013-01-09 04:31:00,
2013-01-08 23:46:00,45.5,42.0,30.33,NE,41,2.0,3.0,86,0.00,,,0.00,weatherlink.com 1.10,2013-01-09 04:46:00,